N365FX KHWO-KHWO
Flight info
| Callsign | N365FX |
|---|---|
| Flight time | 0h 1m |
| Altitude | 3000 |
| Route | WUDIP |
| Aircraft | C172/L-SFG/C |
Departure
| Time | 2026-05-06 21:47 |
|---|---|
| Airport | North Perry Airport (KHWO) |
Arrival
| Time | 2026-05-06 21:49 |
|---|---|
| Airport | North Perry Airport (KHWO) |
| Time | Latitude | Longitude | Altitude | Speed | Heading |
|---|---|---|---|---|---|
| 2026-05-06 21:41 | 25.99720 | -80.23873 | 17 ft | 0 kts | 359° |
| 2026-05-06 21:44 | 25.99722 | -80.23872 | 17 ft | 2 kts | 20° |
| 2026-05-06 21:44 | 25.99732 | -80.23861 | 17 ft | 4 kts | 2° |
| 2026-05-06 21:44 | 25.99760 | -80.23946 | 15 ft | 19 kts | 271° |
| 2026-05-06 21:44 | 25.99761 | -80.24159 | 14 ft | 35 kts | 270° |
| 2026-05-06 21:45 | 25.99761 | -80.24363 | 13 ft | 13 kts | 268° |
| 2026-05-06 21:45 | 25.99802 | -80.24409 | 14 ft | 8 kts | 360° |
| 2026-05-06 21:45 | 25.99825 | -80.24380 | 14 ft | 7 kts | 90° |
| 2026-05-06 21:45 | 25.99825 | -80.24353 | 13 ft | 0 kts | 80° |
| 2026-05-06 21:46 | 25.99825 | -80.24335 | 13 ft | 12 kts | 93° |
| 2026-05-06 21:46 | 25.99822 | -80.24052 | 16 ft | 58 kts | 87° |
| 2026-05-06 21:46 | 25.99824 | -80.23538 | 113 ft | 73 kts | 86° |
| 2026-05-06 21:47 | 25.99817 | -80.22954 | 303 ft | 71 kts | 81° |
| 2026-05-06 21:47 | 25.99825 | -80.22366 | 489 ft | 80 kts | 104° |
| 2026-05-06 21:47 | 25.99270 | -80.22033 | 687 ft | 107 kts | 176° |
| 2026-05-06 21:47 | 25.98541 | -80.22258 | 817 ft | 113 kts | 178° |
| 2026-05-06 21:48 | 25.98443 | -80.21948 | 805 ft | 88 kts | 344° |
| 2026-05-06 21:48 | 25.98966 | -80.22288 | 726 ft | 91 kts | 345° |
| 2026-05-06 21:48 | 25.99525 | -80.22553 | 468 ft | 81 kts | 347° |
| 2026-05-06 21:48 | 25.99958 | -80.22870 | 220 ft | 77 kts | 308° |
| 2026-05-06 21:49 | 25.99810 | -80.23501 | 23 ft | 89 kts | 281° |
| 2026-05-06 21:49 | 25.99820 | -80.24019 | 16 ft | 37 kts | 270° |
| 2026-05-06 21:49 | 25.99795 | -80.24156 | 14 ft | 8 kts | 172° |
| 2026-05-06 21:49 | 25.99761 | -80.24161 | 14 ft | 3 kts | 241° |
| 2026-05-06 21:50 | 25.99772 | -80.24178 | 13 ft | 0 kts | 307° |
| 2026-05-06 21:50 | 25.99761 | -80.24236 | 13 ft | 17 kts | 269° |
| 2026-05-06 21:50 | 25.99779 | -80.24332 | 13 ft | 6 kts | 5° |
| 2026-05-06 21:50 | 25.99786 | -80.24332 | 13 ft | 0 kts | 360° |
| 2026-05-06 21:51 | 25.99801 | -80.24331 | 13 ft | 9 kts | 359° |
| 2026-05-06 21:51 | 25.99822 | -80.24290 | 13 ft | 8 kts | 98° |
| 2026-05-06 21:51 | 25.99822 | -80.24270 | 12 ft | 5 kts | 88° |
| 2026-05-06 21:52 | 25.99834 | -80.24053 | 16 ft | 50 kts | 90° |
| 2026-05-06 21:52 | 25.99824 | -80.23557 | 106 ft | 67 kts | 84° |
| 2026-05-06 21:52 | 25.99859 | -80.23057 | 318 ft | 64 kts | 83° |
| 2026-05-06 21:52 | 25.99850 | -80.22519 | 479 ft | 75 kts | 86° |
| 2026-05-06 21:53 | 25.99828 | -80.21963 | 793 ft | 75 kts | 107° |
| 2026-05-06 21:53 | 25.99340 | -80.21723 | 997 ft | 88 kts | 175° |
| 2026-05-06 21:53 | 25.98714 | -80.21761 | 1044 ft | 94 kts | 186° |
| 2026-05-06 21:53 | 25.98239 | -80.22266 | 1199 ft | 101 kts | 262° |
| 2026-05-06 21:54 | 25.98241 | -80.23081 | 1239 ft | 109 kts | 268° |
| 2026-05-06 21:54 | 25.98256 | -80.23902 | 1263 ft | 105 kts | 272° |
| 2026-05-06 21:54 | 25.98300 | -80.24712 | 1338 ft | 105 kts | 269° |
| 2026-05-06 21:54 | 25.98306 | -80.25515 | 1403 ft | 104 kts | 269° |
| 2026-05-06 21:55 | 25.98321 | -80.26320 | 1431 ft | 103 kts | 268° |
| 2026-05-06 21:55 | 25.98330 | -80.27132 | 1416 ft | 107 kts | 268° |
| 2026-05-06 21:55 | 25.98453 | -80.27946 | 1345 ft | 117 kts | 298° |
| 2026-05-06 21:55 | 25.99061 | -80.28439 | 1153 ft | 109 kts | 358° |
| 2026-05-06 21:56 | 25.99817 | -80.28414 | 938 ft | 103 kts | 30° |
| 2026-05-06 21:56 | 26.00093 | -80.27808 | 707 ft | 100 kts | 101° |
| 2026-05-06 21:56 | 25.99986 | -80.27089 | 660 ft | 85 kts | 97° |
| 2026-05-06 21:56 | 25.99884 | -80.26466 | 531 ft | 80 kts | 98° |
| 2026-05-06 21:57 | 25.99817 | -80.25857 | 330 ft | 83 kts | 88° |
| 2026-05-06 21:57 | 25.99827 | -80.25217 | 238 ft | 78 kts | 82° |
| 2026-05-06 21:57 | 25.99802 | -80.24618 | 56 ft | 76 kts | 81° |
| 2026-05-06 21:57 | 25.99810 | -80.24123 | 15 ft | 49 kts | 84° |
| 2026-05-06 21:58 | 25.99828 | -80.23923 | 16 ft | 31 kts | 87° |